sensor_id;sensor_type;location;lat;lon;timestamp;P1;P2;P0
74880;PMS5003;63427;49.654;6.596;2023-12-20T00:01:57;2;2;
74880;PMS5003;63427;49.654;6.596;2023-12-20T00:04:23;2;2;
74880;PMS5003;63427;49.654;6.596;2023-12-20T00:06:48;3;3;
74880;PMS5003;63427;49.654;6.596;2023-12-20T00:09:14;2;2;
74880;PMS5003;63427;49.654;6.596;2023-12-20T00:11:40;1;1;
74880;PMS5003;63427;49.654;6.596;2023-12-20T00:14:05;2;2;
74880;PMS5003;63427;49.654;6.596;2023-12-20T00:16:31;1;1;
74880;PMS5003;63427;49.654;6.596;2023-12-20T00:18:57;1;1;
74880;PMS5003;63427;49.654;6.596;2023-12-20T00:21:22;2;2;
74880;PMS5003;63427;49.654;6.596;2023-12-20T00:23:48;1;1;
74880;PMS5003;63427;49.654;6.596;2023-12-20T00:26:14;1;1;
74880;PMS5003;63427;49.654;6.596;2023-12-20T00:28:39;1;1;
74880;PMS5003;63427;49.654;6.596;2023-12-20T00:31:05;2;2;
74880;PMS5003;63427;49.654;6.596;2023-12-20T00:33:31;2;2;
74880;PMS5003;63427;49.654;6.596;2023-12-20T00:35:57;2;2;
74880;PMS5003;63427;49.654;6.596;2023-12-20T00:38:22;2;2;
74880;PMS5003;63427;49.654;6.596;2023-12-20T00:40:47;2;2;
74880;PMS5003;63427;49.654;6.596;2023-12-20T00:43:13;2;2;
74880;PMS5003;63427;49.654;6.596;2023-12-20T00:48:05;2;2;
74880;PMS5003;63427;49.654;6.596;2023-12-20T00:52:56;3;2;
74880;PMS5003;63427;49.654;6.596;2023-12-20T00:55:21;2;2;
74880;PMS5003;63427;49.654;6.596;2023-12-20T00:57:47;2;2;
74880;PMS5003;63427;49.654;6.596;2023-12-20T01:00:13;3;3;
74880;PMS5003;63427;49.654;6.596;2023-12-20T01:02:38;3;3;
74880;PMS5003;63427;49.654;6.596;2023-12-20T01:05:04;2;2;
74880;PMS5003;63427;49.654;6.596;2023-12-20T01:07:30;2;2;
74880;PMS5003;63427;49.654;6.596;2023-12-20T01:09:55;2;2;
74880;PMS5003;63427;49.654;6.596;2023-12-20T01:12:21;4;3;
74880;PMS5003;63427;49.654;6.596;2023-12-20T01:14:46;4;3;
74880;PMS5003;63427;49.654;6.596;2023-12-20T01:17:12;2;2;
74880;PMS5003;63427;49.654;6.596;2023-12-20T01:24:34;2;2;
74880;PMS5003;63427;49.654;6.596;2023-12-20T01:26:55;3;3;
74880;PMS5003;63427;49.654;6.596;2023-12-20T01:29:21;2;2;
74880;PMS5003;63427;49.654;6.596;2023-12-20T01:31:46;2;2;
74880;PMS5003;63427;49.654;6.596;2023-12-20T01:34:12;3;3;
74880;PMS5003;63427;49.654;6.596;2023-12-20T01:36:37;2;2;
74880;PMS5003;63427;49.654;6.596;2023-12-20T01:39:03;3;3;
74880;PMS5003;63427;49.654;6.596;2023-12-20T01:41:29;3;3;
74880;PMS5003;63427;49.654;6.596;2023-12-20T01:43:54;3;3;
74880;PMS5003;63427;49.654;6.596;2023-12-20T01:46:20;3;3;
74880;PMS5003;63427;49.654;6.596;2023-12-20T01:48:46;2;2;
74880;PMS5003;63427;49.654;6.596;2023-12-20T01:51:11;3;3;
74880;PMS5003;63427;49.654;6.596;2023-12-20T01:53:38;3;3;
74880;PMS5003;63427;49.654;6.596;2023-12-20T02:03:19;4;4;
74880;PMS5003;63427;49.654;6.596;2023-12-20T02:05:45;5;5;
74880;PMS5003;63427;49.654;6.596;2023-12-20T02:08:11;3;3;
74880;PMS5003;63427;49.654;6.596;2023-12-20T02:10:36;5;4;
74880;PMS5003;63427;49.654;6.596;2023-12-20T02:13:03;3;3;
74880;PMS5003;63427;49.654;6.596;2023-12-20T02:15:28;3;3;
74880;PMS5003;63427;49.654;6.596;2023-12-20T02:17:53;3;3;
74880;PMS5003;63427;49.654;6.596;2023-12-20T02:20:19;4;3;
74880;PMS5003;63427;49.654;6.596;2023-12-20T02:22:45;4;4;
74880;PMS5003;63427;49.654;6.596;2023-12-20T02:25:10;4;4;
74880;PMS5003;63427;49.654;6.596;2023-12-20T02:27:36;4;4;
74880;PMS5003;63427;49.654;6.596;2023-12-20T02:30:01;4;4;
74880;PMS5003;63427;49.654;6.596;2023-12-20T02:32:27;3;3;
74880;PMS5003;63427;49.654;6.596;2023-12-20T02:34:53;3;3;
74880;PMS5003;63427;49.654;6.596;2023-12-20T02:37:18;4;4;
74880;PMS5003;63427;49.654;6.596;2023-12-20T02:39:45;5;5;
74880;PMS5003;63427;49.654;6.596;2023-12-20T02:42:10;4;4;
74880;PMS5003;63427;49.654;6.596;2023-12-20T02:44:35;5;5;
74880;PMS5003;63427;49.654;6.596;2023-12-20T02:47:01;6;6;
74880;PMS5003;63427;49.654;6.596;2023-12-20T02:49:27;4;4;
74880;PMS5003;63427;49.654;6.596;2023-12-20T02:51:52;5;5;
74880;PMS5003;63427;49.654;6.596;2023-12-20T02:54:18;4;4;
74880;PMS5003;63427;49.654;6.596;2023-12-20T02:56:43;5;5;
74880;PMS5003;63427;49.654;6.596;2023-12-20T02:59:09;6;6;
74880;PMS5003;63427;49.654;6.596;2023-12-20T03:01:35;5;4;
74880;PMS5003;63427;49.654;6.596;2023-12-20T03:04:00;3;3;
74880;PMS5003;63427;49.654;6.596;2023-12-20T03:06:26;4;4;
74880;PMS5003;63427;49.654;6.596;2023-12-20T03:08:52;4;4;
74880;PMS5003;63427;49.654;6.596;2023-12-20T03:11:17;4;4;
74880;PMS5003;63427;49.654;6.596;2023-12-20T03:13:43;6;6;
74880;PMS5003;63427;49.654;6.596;2023-12-20T03:16:09;4;4;
74880;PMS5003;63427;49.654;6.596;2023-12-20T03:18:34;5;5;
74880;PMS5003;63427;49.654;6.596;2023-12-20T03:21:00;6;6;
74880;PMS5003;63427;49.654;6.596;2023-12-20T03:23:25;4;4;
74880;PMS5003;63427;49.654;6.596;2023-12-20T03:25:51;4;3;
74880;PMS5003;63427;49.654;6.596;2023-12-20T03:28:17;4;4;
74880;PMS5003;63427;49.654;6.596;2023-12-20T03:30:42;4;4;
74880;PMS5003;63427;49.654;6.596;2023-12-20T03:33:08;5;5;
74880;PMS5003;63427;49.654;6.596;2023-12-20T03:35:33;3;3;
74880;PMS5003;63427;49.654;6.596;2023-12-20T03:37:59;2;2;
74880;PMS5003;63427;49.654;6.596;2023-12-20T03:40:25;3;3;
74880;PMS5003;63427;49.654;6.596;2023-12-20T03:42:50;3;3;
74880;PMS5003;63427;49.654;6.596;2023-12-20T03:45:16;4;4;
74880;PMS5003;63427;49.654;6.596;2023-12-20T03:47:42;4;4;
74880;PMS5003;63427;49.654;6.596;2023-12-20T03:50:08;2;2;
74880;PMS5003;63427;49.654;6.596;2023-12-20T03:52:33;2;2;
74880;PMS5003;63427;49.654;6.596;2023-12-20T03:54:58;2;2;
74880;PMS5003;63427;49.654;6.596;2023-12-20T03:57:24;2;2;
74880;PMS5003;63427;49.654;6.596;2023-12-20T03:59:50;3;3;
74880;PMS5003;63427;49.654;6.596;2023-12-20T04:02:16;4;4;
74880;PMS5003;63427;49.654;6.596;2023-12-20T04:04:41;5;5;
74880;PMS5003;63427;49.654;6.596;2023-12-20T04:07:06;3;3;
74880;PMS5003;63427;49.654;6.596;2023-12-20T04:09:32;3;3;
74880;PMS5003;63427;49.654;6.596;2023-12-20T04:11:58;4;3;
74880;PMS5003;63427;49.654;6.596;2023-12-20T04:14:23;3;3;
74880;PMS5003;63427;49.654;6.596;2023-12-20T04:16:49;3;3;
74880;PMS5003;63427;49.654;6.596;2023-12-20T04:19:15;3;3;
74880;PMS5003;63427;49.654;6.596;2023-12-20T04:21:41;4;3;
74880;PMS5003;63427;49.654;6.596;2023-12-20T04:24:06;2;2;
74880;PMS5003;63427;49.654;6.596;2023-12-20T04:26:34;3;2;
74880;PMS5003;63427;49.654;6.596;2023-12-20T04:28:58;3;3;
74880;PMS5003;63427;49.654;6.596;2023-12-20T04:31:24;2;2;
74880;PMS5003;63427;49.654;6.596;2023-12-20T04:33:49;3;3;
74880;PMS5003;63427;49.654;6.596;2023-12-20T04:36:15;3;3;
74880;PMS5003;63427;49.654;6.596;2023-12-20T04:38:40;3;3;
74880;PMS5003;63427;49.654;6.596;2023-12-20T04:41:06;2;2;
74880;PMS5003;63427;49.654;6.596;2023-12-20T04:43:31;1;1;
74880;PMS5003;63427;49.654;6.596;2023-12-20T04:45:57;2;2;
74880;PMS5003;63427;49.654;6.596;2023-12-20T04:48:23;4;4;
74880;PMS5003;63427;49.654;6.596;2023-12-20T04:50:48;3;3;
74880;PMS5003;63427;49.654;6.596;2023-12-20T04:53:14;3;3;
74880;PMS5003;63427;49.654;6.596;2023-12-20T04:55:40;3;2;
74880;PMS5003;63427;49.654;6.596;2023-12-20T04:58:06;4;3;
74880;PMS5003;63427;49.654;6.596;2023-12-20T05:02:57;2;2;
74880;PMS5003;63427;49.654;6.596;2023-12-20T05:05:23;1;1;
74880;PMS5003;63427;49.654;6.596;2023-12-20T05:07:48;2;2;
74880;PMS5003;63427;49.654;6.596;2023-12-20T05:10:14;2;2;
74880;PMS5003;63427;49.654;6.596;2023-12-20T05:12:40;4;4;
74880;PMS5003;63427;49.654;6.596;2023-12-20T05:15:06;3;3;
74880;PMS5003;63427;49.654;6.596;2023-12-20T05:17:31;3;3;
74880;PMS5003;63427;49.654;6.596;2023-12-20T05:19:57;4;4;
74880;PMS5003;63427;49.654;6.596;2023-12-20T05:22:23;4;4;
74880;PMS5003;63427;49.654;6.596;2023-12-20T05:24:48;3;2;
74880;PMS5003;63427;49.654;6.596;2023-12-20T05:27:14;2;2;
74880;PMS5003;63427;49.654;6.596;2023-12-20T05:34:31;4;4;
74880;PMS5003;63427;49.654;6.596;2023-12-20T05:36:57;4;3;
74880;PMS5003;63427;49.654;6.596;2023-12-20T05:39:22;2;2;
74880;PMS5003;63427;49.654;6.596;2023-12-20T05:41:48;3;3;
74880;PMS5003;63427;49.654;6.596;2023-12-20T05:44:14;4;4;
74880;PMS5003;63427;49.654;6.596;2023-12-20T05:46:39;6;5;
74880;PMS5003;63427;49.654;6.596;2023-12-20T05:49:05;4;4;
74880;PMS5003;63427;49.654;6.596;2023-12-20T05:51:31;4;4;
74880;PMS5003;63427;49.654;6.596;2023-12-20T05:53:57;4;4;
74880;PMS5003;63427;49.654;6.596;2023-12-20T05:56:22;7;6;
74880;PMS5003;63427;49.654;6.596;2023-12-20T05:58:48;3;3;
74880;PMS5003;63427;49.654;6.596;2023-12-20T06:01:14;4;4;
74880;PMS5003;63427;49.654;6.596;2023-12-20T06:03:41;4;3;
74880;PMS5003;63427;49.654;6.596;2023-12-20T06:06:06;2;2;
74880;PMS5003;63427;49.654;6.596;2023-12-20T06:08:31;3;2;
74880;PMS5003;63427;49.654;6.596;2023-12-20T06:10:56;5;5;
74880;PMS5003;63427;49.654;6.596;2023-12-20T06:18:14;3;3;
74880;PMS5003;63427;49.654;6.596;2023-12-20T06:20:39;4;4;
74880;PMS5003;63427;49.654;6.596;2023-12-20T06:23:06;5;5;
74880;PMS5003;63427;49.654;6.596;2023-12-20T06:25:31;4;3;
74880;PMS5003;63427;49.654;6.596;2023-12-20T06:27:57;6;5;
74880;PMS5003;63427;49.654;6.596;2023-12-20T06:30:22;5;4;
74880;PMS5003;63427;49.654;6.596;2023-12-20T06:32:48;4;3;
74880;PMS5003;63427;49.654;6.596;2023-12-20T06:35:14;3;3;
74880;PMS5003;63427;49.654;6.596;2023-12-20T06:37:39;6;5;
74880;PMS5003;63427;49.654;6.596;2023-12-20T06:40:06;4;4;
74880;PMS5003;63427;49.654;6.596;2023-12-20T06:42:31;4;4;
74880;PMS5003;63427;49.654;6.596;2023-12-20T06:44:56;6;5;
74880;PMS5003;63427;49.654;6.596;2023-12-20T06:47:22;4;4;
74880;PMS5003;63427;49.654;6.596;2023-12-20T06:49:47;4;3;
74880;PMS5003;63427;49.654;6.596;2023-12-20T06:52:13;6;5;
74880;PMS5003;63427;49.654;6.596;2023-12-20T06:54:39;6;6;
74880;PMS5003;63427;49.654;6.596;2023-12-20T06:57:04;4;4;
74880;PMS5003;63427;49.654;6.596;2023-12-20T06:59:30;6;5;
74880;PMS5003;63427;49.654;6.596;2023-12-20T07:01:56;6;6;
74880;PMS5003;63427;49.654;6.596;2023-12-20T07:04:21;5;5;
74880;PMS5003;63427;49.654;6.596;2023-12-20T07:06:47;6;5;
74880;PMS5003;63427;49.654;6.596;2023-12-20T07:14:04;7;5;
74880;PMS5003;63427;49.654;6.596;2023-12-20T07:16:30;7;7;
74880;PMS5003;63427;49.654;6.596;2023-12-20T07:18:55;4;4;
74880;PMS5003;63427;49.654;6.596;2023-12-20T07:21:21;7;7;
74880;PMS5003;63427;49.654;6.596;2023-12-20T07:23:47;4;4;
74880;PMS5003;63427;49.654;6.596;2023-12-20T07:26:13;4;4;
74880;PMS5003;63427;49.654;6.596;2023-12-20T07:28:38;8;7;
74880;PMS5003;63427;49.654;6.596;2023-12-20T07:31:04;6;6;
74880;PMS5003;63427;49.654;6.596;2023-12-20T07:33:30;6;5;
74880;PMS5003;63427;49.654;6.596;2023-12-20T07:35:55;7;6;
74880;PMS5003;63427;49.654;6.596;2023-12-20T07:38:21;6;6;
74880;PMS5003;63427;49.654;6.596;2023-12-20T07:40:47;8;8;
74880;PMS5003;63427;49.654;6.596;2023-12-20T07:45:38;9;8;
74880;PMS5003;63427;49.654;6.596;2023-12-20T07:48:04;8;7;
74880;PMS5003;63427;49.654;6.596;2023-12-20T07:50:29;7;7;
74880;PMS5003;63427;49.654;6.596;2023-12-20T07:52:55;5;5;
74880;PMS5003;63427;49.654;6.596;2023-12-20T07:55:21;6;5;
74880;PMS5003;63427;49.654;6.596;2023-12-20T07:57:46;5;5;
74880;PMS5003;63427;49.654;6.596;2023-12-20T08:00:12;7;7;
74880;PMS5003;63427;49.654;6.596;2023-12-20T08:02:37;10;10;
74880;PMS5003;63427;49.654;6.596;2023-12-20T08:05:03;9;9;
74880;PMS5003;63427;49.654;6.596;2023-12-20T08:07:29;8;7;
74880;PMS5003;63427;49.654;6.596;2023-12-20T08:09:54;12;10;
74880;PMS5003;63427;49.654;6.596;2023-12-20T08:12:20;10;9;
74880;PMS5003;63427;49.654;6.596;2023-12-20T08:14:45;12;11;
74880;PMS5003;63427;49.654;6.596;2023-12-20T08:17:11;12;9;
74880;PMS5003;63427;49.654;6.596;2023-12-20T08:19:37;12;10;
74880;PMS5003;63427;49.654;6.596;2023-12-20T08:22:02;9;9;
74880;PMS5003;63427;49.654;6.596;2023-12-20T08:24:28;12;10;
74880;PMS5003;63427;49.654;6.596;2023-12-20T08:26:53;26;24;
74880;PMS5003;63427;49.654;6.596;2023-12-20T08:29:18;12;10;
74880;PMS5003;63427;49.654;6.596;2023-12-20T08:31:45;9;9;
74880;PMS5003;63427;49.654;6.596;2023-12-20T08:34:20;15;14;
74880;PMS5003;63427;49.654;6.596;2023-12-20T08:36:35;14;14;
74880;PMS5003;63427;49.654;6.596;2023-12-20T08:39:01;12;11;
74880;PMS5003;63427;49.654;6.596;2023-12-20T08:43:52;13;11;
74880;PMS5003;63427;49.654;6.596;2023-12-20T08:46:18;11;11;
74880;PMS5003;63427;49.654;6.596;2023-12-20T08:48:45;11;10;
74880;PMS5003;63427;49.654;6.596;2023-12-20T08:51:10;14;13;
74880;PMS5003;63427;49.654;6.596;2023-12-20T08:53:35;10;10;
74880;PMS5003;63427;49.654;6.596;2023-12-20T08:56:01;10;10;
74880;PMS5003;63427;49.654;6.596;2023-12-20T08:58:26;9;8;
74880;PMS5003;63427;49.654;6.596;2023-12-20T09:00:52;16;14;
74880;PMS5003;63427;49.654;6.596;2023-12-20T09:03:18;13;13;
74880;PMS5003;63427;49.654;6.596;2023-12-20T09:05:45;7;7;
74880;PMS5003;63427;49.654;6.596;2023-12-20T09:08:09;13;11;
74880;PMS5003;63427;49.654;6.596;2023-12-20T09:10:35;17;16;
74880;PMS5003;63427;49.654;6.596;2023-12-20T09:13:00;11;10;
74880;PMS5003;63427;49.654;6.596;2023-12-20T09:15:27;14;14;
74880;PMS5003;63427;49.654;6.596;2023-12-20T09:17:51;12;12;
74880;PMS5003;63427;49.654;6.596;2023-12-20T09:20:16;13;13;
74880;PMS5003;63427;49.654;6.596;2023-12-20T09:22:42;10;10;
74880;PMS5003;63427;49.654;6.596;2023-12-20T09:25:09;8;8;
74880;PMS5003;63427;49.654;6.596;2023-12-20T09:27:33;9;9;
74880;PMS5003;63427;49.654;6.596;2023-12-20T09:29:58;11;9;
74880;PMS5003;63427;49.654;6.596;2023-12-20T09:32:24;11;10;
74880;PMS5003;63427;49.654;6.596;2023-12-20T09:37:15;9;9;
74880;PMS5003;63427;49.654;6.596;2023-12-20T09:39:41;10;10;
74880;PMS5003;63427;49.654;6.596;2023-12-20T09:42:06;8;8;
74880;PMS5003;63427;49.654;6.596;2023-12-20T09:44:31;12;10;
74880;PMS5003;63427;49.654;6.596;2023-12-20T09:46:57;8;7;
74880;PMS5003;63427;49.654;6.596;2023-12-20T09:49:23;9;9;
74880;PMS5003;63427;49.654;6.596;2023-12-20T09:51:48;11;10;
74880;PMS5003;63427;49.654;6.596;2023-12-20T09:56:39;11;10;
74880;PMS5003;63427;49.654;6.596;2023-12-20T09:59:04;10;9;
74880;PMS5003;63427;49.654;6.596;2023-12-20T10:01:30;9;9;
74880;PMS5003;63427;49.654;6.596;2023-12-20T10:03:55;9;9;
74880;PMS5003;63427;49.654;6.596;2023-12-20T10:06:21;11;10;
74880;PMS5003;63427;49.654;6.596;2023-12-20T10:08:47;10;10;
74880;PMS5003;63427;49.654;6.596;2023-12-20T10:11:12;9;8;
74880;PMS5003;63427;49.654;6.596;2023-12-20T10:18:29;7;7;
74880;PMS5003;63427;49.654;6.596;2023-12-20T10:20:54;6;6;
74880;PMS5003;63427;49.654;6.596;2023-12-20T10:40:20;5;5;
74880;PMS5003;63427;49.654;6.596;2023-12-20T10:42:45;4;4;
74880;PMS5003;63427;49.654;6.596;2023-12-20T10:45:11;8;7;
74880;PMS5003;63427;49.654;6.596;2023-12-20T10:47:36;5;4;
74880;PMS5003;63427;49.654;6.596;2023-12-20T10:50:03;8;7;
74880;PMS5003;63427;49.654;6.596;2023-12-20T10:52:27;9;7;
74880;PMS5003;63427;49.654;6.596;2023-12-20T10:57:19;4;4;
74880;PMS5003;63427;49.654;6.596;2023-12-20T10:59:44;6;6;
74880;PMS5003;63427;49.654;6.596;2023-12-20T11:07:12;5;5;
74880;PMS5003;63427;49.654;6.596;2023-12-20T11:09:31;11;10;
74880;PMS5003;63427;49.654;6.596;2023-12-20T11:28:50;4;4;
74880;PMS5003;63427;49.654;6.596;2023-12-20T11:31:16;7;7;
74880;PMS5003;63427;49.654;6.596;2023-12-20T11:33:41;7;6;
74880;PMS5003;63427;49.654;6.596;2023-12-20T11:38:37;5;5;
74880;PMS5003;63427;49.654;6.596;2023-12-20T11:40:58;3;3;
74880;PMS5003;63427;49.654;6.596;2023-12-20T11:45:49;5;5;
74880;PMS5003;63427;49.654;6.596;2023-12-20T11:48:15;5;5;
74880;PMS5003;63427;49.654;6.596;2023-12-20T11:50:41;8;7;
74880;PMS5003;63427;49.654;6.596;2023-12-20T11:53:06;5;5;
74880;PMS5003;63427;49.654;6.596;2023-12-20T11:55:32;6;6;
74880;PMS5003;63427;49.654;6.596;2023-12-20T11:57:58;7;7;
74880;PMS5003;63427;49.654;6.596;2023-12-20T12:00:24;6;5;
74880;PMS5003;63427;49.654;6.596;2023-12-20T12:02:57;6;5;
74880;PMS5003;63427;49.654;6.596;2023-12-20T12:07:40;4;4;
74880;PMS5003;63427;49.654;6.596;2023-12-20T12:10:06;7;6;
74880;PMS5003;63427;49.654;6.596;2023-12-20T12:12:32;5;4;
74880;PMS5003;63427;49.654;6.596;2023-12-20T12:15:01;7;7;
74880;PMS5003;63427;49.654;6.596;2023-12-20T12:17:23;11;11;
74880;PMS5003;63427;49.654;6.596;2023-12-20T12:19:49;6;6;
74880;PMS5003;63427;49.654;6.596;2023-12-20T12:24:40;4;4;
74880;PMS5003;63427;49.654;6.596;2023-12-20T12:27:06;5;4;
74880;PMS5003;63427;49.654;6.596;2023-12-20T12:29:31;5;5;
74880;PMS5003;63427;49.654;6.596;2023-12-20T12:31:57;6;6;
74880;PMS5003;63427;49.654;6.596;2023-12-20T12:34:22;5;4;
74880;PMS5003;63427;49.654;6.596;2023-12-20T12:36:48;5;4;
74880;PMS5003;63427;49.654;6.596;2023-12-20T12:39:13;5;5;
74880;PMS5003;63427;49.654;6.596;2023-12-20T12:41:39;7;7;
74880;PMS5003;63427;49.654;6.596;2023-12-20T12:44:05;5;5;
74880;PMS5003;63427;49.654;6.596;2023-12-20T12:46:33;8;7;
74880;PMS5003;63427;49.654;6.596;2023-12-20T12:48:55;9;8;
74880;PMS5003;63427;49.654;6.596;2023-12-20T12:51:21;6;6;
74880;PMS5003;63427;49.654;6.596;2023-12-20T12:53:47;4;4;
74880;PMS5003;63427;49.654;6.596;2023-12-20T12:56:13;6;6;
74880;PMS5003;63427;49.654;6.596;2023-12-20T12:58:38;7;6;
74880;PMS5003;63427;49.654;6.596;2023-12-20T13:01:04;5;5;
74880;PMS5003;63427;49.654;6.596;2023-12-20T13:03:34;8;7;
74880;PMS5003;63427;49.654;6.596;2023-12-20T13:05:55;7;6;
74880;PMS5003;63427;49.654;6.596;2023-12-20T13:08:20;6;6;
74880;PMS5003;63427;49.654;6.596;2023-12-20T13:10:46;6;6;
74880;PMS5003;63427;49.654;6.596;2023-12-20T13:13:12;7;7;
74880;PMS5003;63427;49.654;6.596;2023-12-20T13:15:37;5;5;
74880;PMS5003;63427;49.654;6.596;2023-12-20T13:18:03;6;5;
74880;PMS5003;63427;49.654;6.596;2023-12-20T13:23:01;8;7;
74880;PMS5003;63427;49.654;6.596;2023-12-20T13:25:19;6;6;
74880;PMS5003;63427;49.654;6.596;2023-12-20T13:27:45;7;6;
74880;PMS5003;63427;49.654;6.596;2023-12-20T13:30:11;11;8;
74880;PMS5003;63427;49.654;6.596;2023-12-20T13:32:36;8;7;
74880;PMS5003;63427;49.654;6.596;2023-12-20T13:35:02;5;5;
74880;PMS5003;63427;49.654;6.596;2023-12-20T13:37:28;6;5;
74880;PMS5003;63427;49.654;6.596;2023-12-20T13:42:19;7;6;
74880;PMS5003;63427;49.654;6.596;2023-12-20T13:44:45;8;7;
74880;PMS5003;63427;49.654;6.596;2023-12-20T13:47:10;7;6;
74880;PMS5003;63427;49.654;6.596;2023-12-20T13:49:36;6;6;
74880;PMS5003;63427;49.654;6.596;2023-12-20T13:52:02;7;7;
74880;PMS5003;63427;49.654;6.596;2023-12-20T13:54:27;10;7;
74880;PMS5003;63427;49.654;6.596;2023-12-20T13:56:52;7;6;
74880;PMS5003;63427;49.654;6.596;2023-12-20T13:59:18;5;5;
74880;PMS5003;63427;49.654;6.596;2023-12-20T14:01:44;8;7;
74880;PMS5003;63427;49.654;6.596;2023-12-20T14:04:15;10;8;
74880;PMS5003;63427;49.654;6.596;2023-12-20T14:06:35;6;6;
74880;PMS5003;63427;49.654;6.596;2023-12-20T14:09:01;6;5;
74880;PMS5003;63427;49.654;6.596;2023-12-20T14:11:26;8;6;
74880;PMS5003;63427;49.654;6.596;2023-12-20T14:13:52;6;6;
74880;PMS5003;63427;49.654;6.596;2023-12-20T14:16:17;6;6;
74880;PMS5003;63427;49.654;6.596;2023-12-20T14:18:43;8;8;
74880;PMS5003;63427;49.654;6.596;2023-12-20T14:21:08;5;5;
74880;PMS5003;63427;49.654;6.596;2023-12-20T14:23:34;6;6;
74880;PMS5003;63427;49.654;6.596;2023-12-20T14:25:59;6;6;
74880;PMS5003;63427;49.654;6.596;2023-12-20T14:28:25;6;5;
74880;PMS5003;63427;49.654;6.596;2023-12-20T14:30:51;6;6;
74880;PMS5003;63427;49.654;6.596;2023-12-20T14:33:16;10;9;
74880;PMS5003;63427;49.654;6.596;2023-12-20T14:35:42;8;8;
74880;PMS5003;63427;49.654;6.596;2023-12-20T14:38:07;7;7;
74880;PMS5003;63427;49.654;6.596;2023-12-20T14:40:33;6;6;
74880;PMS5003;63427;49.654;6.596;2023-12-20T14:42:58;7;7;
74880;PMS5003;63427;49.654;6.596;2023-12-20T14:45:24;7;7;
74880;PMS5003;63427;49.654;6.596;2023-12-20T14:47:49;7;7;
74880;PMS5003;63427;49.654;6.596;2023-12-20T14:50:15;4;4;
74880;PMS5003;63427;49.654;6.596;2023-12-20T14:52:41;9;7;
74880;PMS5003;63427;49.654;6.596;2023-12-20T14:55:06;7;7;
74880;PMS5003;63427;49.654;6.596;2023-12-20T14:57:32;7;7;
74880;PMS5003;63427;49.654;6.596;2023-12-20T14:59:57;7;7;
74880;PMS5003;63427;49.654;6.596;2023-12-20T15:02:23;4;4;
74880;PMS5003;63427;49.654;6.596;2023-12-20T15:04:48;5;4;
74880;PMS5003;63427;49.654;6.596;2023-12-20T15:07:15;5;5;
74880;PMS5003;63427;49.654;6.596;2023-12-20T15:12:05;8;8;
74880;PMS5003;63427;49.654;6.596;2023-12-20T15:14:31;7;6;
74880;PMS5003;63427;49.654;6.596;2023-12-20T15:16:56;6;6;
74880;PMS5003;63427;49.654;6.596;2023-12-20T15:19:22;7;7;
74880;PMS5003;63427;49.654;6.596;2023-12-20T15:21:47;7;7;
74880;PMS5003;63427;49.654;6.596;2023-12-20T15:24:13;6;5;
74880;PMS5003;63427;49.654;6.596;2023-12-20T15:26:38;6;6;
74880;PMS5003;63427;49.654;6.596;2023-12-20T15:29:04;5;5;
74880;PMS5003;63427;49.654;6.596;2023-12-20T15:31:29;7;7;
74880;PMS5003;63427;49.654;6.596;2023-12-20T15:33:55;12;11;
74880;PMS5003;63427;49.654;6.596;2023-12-20T15:36:20;6;5;
74880;PMS5003;63427;49.654;6.596;2023-12-20T15:38:46;7;6;
74880;PMS5003;63427;49.654;6.596;2023-12-20T15:43:37;9;8;
74880;PMS5003;63427;49.654;6.596;2023-12-20T15:46:03;9;9;
74880;PMS5003;63427;49.654;6.596;2023-12-20T15:48:28;6;5;
74880;PMS5003;63427;49.654;6.596;2023-12-20T15:50:56;8;8;
74880;PMS5003;63427;49.654;6.596;2023-12-20T15:53:20;8;7;
74880;PMS5003;63427;49.654;6.596;2023-12-20T15:55:45;9;9;
74880;PMS5003;63427;49.654;6.596;2023-12-20T15:58:10;8;7;
74880;PMS5003;63427;49.654;6.596;2023-12-20T16:00:36;8;8;
74880;PMS5003;63427;49.654;6.596;2023-12-20T16:03:01;9;9;
74880;PMS5003;63427;49.654;6.596;2023-12-20T16:05:31;8;7;
74880;PMS5003;63427;49.654;6.596;2023-12-20T16:08:01;9;6;
74880;PMS5003;63427;49.654;6.596;2023-12-20T16:10:18;8;7;
74880;PMS5003;63427;49.654;6.596;2023-12-20T16:12:44;6;6;
74880;PMS5003;63427;49.654;6.596;2023-12-20T16:15:10;7;7;
74880;PMS5003;63427;49.654;6.596;2023-12-20T16:17:35;7;7;
74880;PMS5003;63427;49.654;6.596;2023-12-20T16:20:00;6;6;
74880;PMS5003;63427;49.654;6.596;2023-12-20T16:22:26;7;6;
74880;PMS5003;63427;49.654;6.596;2023-12-20T16:24:52;7;7;
74880;PMS5003;63427;49.654;6.596;2023-12-20T16:27:17;9;6;
74880;PMS5003;63427;49.654;6.596;2023-12-20T16:29:43;7;7;
74880;PMS5003;63427;49.654;6.596;2023-12-20T16:32:09;7;7;
74880;PMS5003;63427;49.654;6.596;2023-12-20T16:34:34;7;7;
74880;PMS5003;63427;49.654;6.596;2023-12-20T16:37:00;8;8;
74880;PMS5003;63427;49.654;6.596;2023-12-20T16:39:25;8;7;
74880;PMS5003;63427;49.654;6.596;2023-12-20T16:41:51;8;8;
74880;PMS5003;63427;49.654;6.596;2023-12-20T16:49:08;8;7;
74880;PMS5003;63427;49.654;6.596;2023-12-20T16:56:25;8;7;
74880;PMS5003;63427;49.654;6.596;2023-12-20T16:58:50;7;7;
74880;PMS5003;63427;49.654;6.596;2023-12-20T17:01:16;10;9;
74880;PMS5003;63427;49.654;6.596;2023-12-20T17:03:41;9;9;
74880;PMS5003;63427;49.654;6.596;2023-12-20T17:06:07;9;8;
74880;PMS5003;63427;49.654;6.596;2023-12-20T17:08:33;9;8;
74880;PMS5003;63427;49.654;6.596;2023-12-20T17:10:58;10;10;
74880;PMS5003;63427;49.654;6.596;2023-12-20T17:13:29;12;12;
74880;PMS5003;63427;49.654;6.596;2023-12-20T17:15:49;11;10;
74880;PMS5003;63427;49.654;6.596;2023-12-20T17:18:15;7;7;
74880;PMS5003;63427;49.654;6.596;2023-12-20T17:20:40;10;9;
74880;PMS5003;63427;49.654;6.596;2023-12-20T17:23:06;9;9;
74880;PMS5003;63427;49.654;6.596;2023-12-20T17:25:31;11;10;
74880;PMS5003;63427;49.654;6.596;2023-12-20T17:27:57;9;9;
74880;PMS5003;63427;49.654;6.596;2023-12-20T17:30:22;14;13;
74880;PMS5003;63427;49.654;6.596;2023-12-20T17:32:51;9;8;
74880;PMS5003;63427;49.654;6.596;2023-12-20T17:35:12;7;7;
74880;PMS5003;63427;49.654;6.596;2023-12-20T17:37:38;10;10;
74880;PMS5003;63427;49.654;6.596;2023-12-20T17:40:03;10;9;
74880;PMS5003;63427;49.654;6.596;2023-12-20T17:42:29;10;9;
74880;PMS5003;63427;49.654;6.596;2023-12-20T17:44:54;11;10;
74880;PMS5003;63427;49.654;6.596;2023-12-20T17:47:20;10;10;
74880;PMS5003;63427;49.654;6.596;2023-12-20T17:49:46;8;8;
74880;PMS5003;63427;49.654;6.596;2023-12-20T17:52:11;8;8;
74880;PMS5003;63427;49.654;6.596;2023-12-20T17:54:37;13;10;
74880;PMS5003;63427;49.654;6.596;2023-12-20T17:59:28;11;11;
74880;PMS5003;63427;49.654;6.596;2023-12-20T18:01:54;11;11;
74880;PMS5003;63427;49.654;6.596;2023-12-20T18:04:19;11;10;
74880;PMS5003;63427;49.654;6.596;2023-12-20T18:06:45;12;11;
74880;PMS5003;63427;49.654;6.596;2023-12-20T18:09:10;12;12;
74880;PMS5003;63427;49.654;6.596;2023-12-20T18:11:35;14;14;
74880;PMS5003;63427;49.654;6.596;2023-12-20T18:14:01;12;11;
74880;PMS5003;63427;49.654;6.596;2023-12-20T18:16:26;9;9;
74880;PMS5003;63427;49.654;6.596;2023-12-20T18:18:52;13;12;
74880;PMS5003;63427;49.654;6.596;2023-12-20T18:21:17;13;12;
74880;PMS5003;63427;49.654;6.596;2023-12-20T18:23:43;8;8;
74880;PMS5003;63427;49.654;6.596;2023-12-20T18:26:08;12;12;
74880;PMS5003;63427;49.654;6.596;2023-12-20T18:28:35;8;8;
74880;PMS5003;63427;49.654;6.596;2023-12-20T18:31:00;17;17;
74880;PMS5003;63427;49.654;6.596;2023-12-20T18:33:25;11;11;
74880;PMS5003;63427;49.654;6.596;2023-12-20T18:35:51;10;9;